sensor_id;sensor_type;location;lat;lon;timestamp;temperature;humidity
15203;DHT22;7702;51.046;5.184;2023-05-15T00:01:20;12.10;99.90
15203;DHT22;7702;51.046;5.184;2023-05-15T00:03:46;12.00;99.90
15203;DHT22;7702;51.046;5.184;2023-05-15T00:06:12;11.90;99.90
15203;DHT22;7702;51.046;5.184;2023-05-15T00:08:38;11.90;99.90
15203;DHT22;7702;51.046;5.184;2023-05-15T00:11:03;12.00;99.90
15203;DHT22;7702;51.046;5.184;2023-05-15T00:13:29;11.90;99.90
15203;DHT22;7702;51.046;5.184;2023-05-15T00:15:55;11.80;99.90
15203;DHT22;7702;51.046;5.184;2023-05-15T00:18:21;11.80;99.90
15203;DHT22;7702;51.046;5.184;2023-05-15T00:20:47;11.70;99.90
15203;DHT22;7702;51.046;5.184;2023-05-15T00:23:13;11.60;99.90
15203;DHT22;7702;51.046;5.184;2023-05-15T00:25:39;11.60;99.90
15203;DHT22;7702;51.046;5.184;2023-05-15T00:28:05;11.50;99.90
15203;DHT22;7702;51.046;5.184;2023-05-15T00:30:30;11.50;99.90
15203;DHT22;7702;51.046;5.184;2023-05-15T00:32:56;11.40;99.90
15203;DHT22;7702;51.046;5.184;2023-05-15T00:35:22;11.40;99.90
15203;DHT22;7702;51.046;5.184;2023-05-15T00:37:47;11.30;99.90
15203;DHT22;7702;51.046;5.184;2023-05-15T00:40:19;11.30;99.90
15203;DHT22;7702;51.046;5.184;2023-05-15T00:42:47;11.20;99.90
15203;DHT22;7702;51.046;5.184;2023-05-15T00:45:13;11.10;99.90
15203;DHT22;7702;51.046;5.184;2023-05-15T00:47:39;11.10;99.90
15203;DHT22;7702;51.046;5.184;2023-05-15T00:50:09;11.00;99.90
15203;DHT22;7702;51.046;5.184;2023-05-15T00:52:35;11.00;99.90
15203;DHT22;7702;51.046;5.184;2023-05-15T00:55:01;11.00;99.90
15203;DHT22;7702;51.046;5.184;2023-05-15T00:57:28;10.90;99.90
15203;DHT22;7702;51.046;5.184;2023-05-15T00:59:56;10.90;99.90
15203;DHT22;7702;51.046;5.184;2023-05-15T01:02:22;10.90;99.90
15203;DHT22;7702;51.046;5.184;2023-05-15T01:04:48;10.80;99.90
15203;DHT22;7702;51.046;5.184;2023-05-15T01:07:15;10.80;99.90
15203;DHT22;7702;51.046;5.184;2023-05-15T01:09:44;10.80;99.90
15203;DHT22;7702;51.046;5.184;2023-05-15T01:12:14;10.80;99.90
15203;DHT22;7702;51.046;5.184;2023-05-15T01:14:40;10.80;99.90
15203;DHT22;7702;51.046;5.184;2023-05-15T01:17:06;10.80;99.90
15203;DHT22;7702;51.046;5.184;2023-05-15T01:19:32;10.80;99.90
15203;DHT22;7702;51.046;5.184;2023-05-15T01:25:45;10.80;99.90
15203;DHT22;7702;51.046;5.184;2023-05-15T01:28:16;10.70;99.90
15203;DHT22;7702;51.046;5.184;2023-05-15T01:30:44;10.70;99.90
15203;DHT22;7702;51.046;5.184;2023-05-15T01:33:28;10.80;99.90
15203;DHT22;7702;51.046;5.184;2023-05-15T01:36:06;10.70;99.90
15203;DHT22;7702;51.046;5.184;2023-05-15T01:38:39;10.70;99.90
15203;DHT22;7702;51.046;5.184;2023-05-15T01:41:16;10.80;99.90
15203;DHT22;7702;51.046;5.184;2023-05-15T01:43:50;10.80;99.90
15203;DHT22;7702;51.046;5.184;2023-05-15T01:46:19;10.80;99.90
15203;DHT22;7702;51.046;5.184;2023-05-15T01:48:46;10.80;99.90
15203;DHT22;7702;51.046;5.184;2023-05-15T01:51:14;10.80;99.90
15203;DHT22;7702;51.046;5.184;2023-05-15T01:53:42;10.70;99.90
15203;DHT22;7702;51.046;5.184;2023-05-15T01:56:12;10.70;99.90
15203;DHT22;7702;51.046;5.184;2023-05-15T01:58:40;10.70;99.90
15203;DHT22;7702;51.046;5.184;2023-05-15T02:01:08;10.60;99.90
15203;DHT22;7702;51.046;5.184;2023-05-15T02:03:35;10.60;99.90
15203;DHT22;7702;51.046;5.184;2023-05-15T02:06:02;10.60;99.90
15203;DHT22;7702;51.046;5.184;2023-05-15T02:08:29;10.60;99.90
15203;DHT22;7702;51.046;5.184;2023-05-15T02:10:58;10.60;99.90
15203;DHT22;7702;51.046;5.184;2023-05-15T02:13:25;10.50;99.90
15203;DHT22;7702;51.046;5.184;2023-05-15T02:15:51;10.50;99.90
15203;DHT22;7702;51.046;5.184;2023-05-15T02:18:18;10.40;99.90
15203;DHT22;7702;51.046;5.184;2023-05-15T02:20:44;10.30;99.90
15203;DHT22;7702;51.046;5.184;2023-05-15T02:23:10;10.40;99.90
15203;DHT22;7702;51.046;5.184;2023-05-15T02:26:59;10.40;99.90
15203;DHT22;7702;51.046;5.184;2023-05-15T02:37:32;10.40;99.90
15203;DHT22;7702;51.046;5.184;2023-05-15T02:40:00;10.30;99.90
15203;DHT22;7702;51.046;5.184;2023-05-15T02:42:27;10.30;99.90
15203;DHT22;7702;51.046;5.184;2023-05-15T02:44:54;10.30;99.90
15203;DHT22;7702;51.046;5.184;2023-05-15T02:47:20;10.30;99.90
15203;DHT22;7702;51.046;5.184;2023-05-15T02:49:48;10.20;99.90
15203;DHT22;7702;51.046;5.184;2023-05-15T02:52:14;10.20;99.90
15203;DHT22;7702;51.046;5.184;2023-05-15T02:54:40;10.30;99.90
15203;DHT22;7702;51.046;5.184;2023-05-15T02:57:06;10.20;99.90
15203;DHT22;7702;51.046;5.184;2023-05-15T02:59:35;10.20;99.90
15203;DHT22;7702;51.046;5.184;2023-05-15T03:02:01;10.10;99.90
15203;DHT22;7702;51.046;5.184;2023-05-15T03:04:28;10.20;99.90
15203;DHT22;7702;51.046;5.184;2023-05-15T03:06:54;10.20;99.90
15203;DHT22;7702;51.046;5.184;2023-05-15T03:09:20;10.30;99.90
15203;DHT22;7702;51.046;5.184;2023-05-15T03:11:45;10.30;99.90
15203;DHT22;7702;51.046;5.184;2023-05-15T03:14:11;10.30;99.90
15203;DHT22;7702;51.046;5.184;2023-05-15T03:16:37;10.30;99.90
15203;DHT22;7702;51.046;5.184;2023-05-15T03:19:03;10.20;99.90
15203;DHT22;7702;51.046;5.184;2023-05-15T03:21:29;10.30;99.90
15203;DHT22;7702;51.046;5.184;2023-05-15T03:23:55;10.30;99.90
15203;DHT22;7702;51.046;5.184;2023-05-15T03:26:21;10.30;99.90
15203;DHT22;7702;51.046;5.184;2023-05-15T03:28:46;10.30;99.90
15203;DHT22;7702;51.046;5.184;2023-05-15T03:31:12;10.20;99.90
15203;DHT22;7702;51.046;5.184;2023-05-15T03:33:39;10.10;99.90
15203;DHT22;7702;51.046;5.184;2023-05-15T03:36:05;10.10;99.90
15203;DHT22;7702;51.046;5.184;2023-05-15T03:38:31;10.20;99.90
15203;DHT22;7702;51.046;5.184;2023-05-15T03:40:57;10.30;99.90
15203;DHT22;7702;51.046;5.184;2023-05-15T03:43:23;10.20;99.90
15203;DHT22;7702;51.046;5.184;2023-05-15T03:45:49;10.30;99.90
15203;DHT22;7702;51.046;5.184;2023-05-15T03:48:15;10.20;99.90
15203;DHT22;7702;51.046;5.184;2023-05-15T03:50:43;10.20;99.90
15203;DHT22;7702;51.046;5.184;2023-05-15T03:53:09;10.20;99.90
15203;DHT22;7702;51.046;5.184;2023-05-15T03:55:34;10.20;99.90
15203;DHT22;7702;51.046;5.184;2023-05-15T03:58:01;10.20;99.90
15203;DHT22;7702;51.046;5.184;2023-05-15T04:00:26;10.20;99.90
15203;DHT22;7702;51.046;5.184;2023-05-15T04:02:52;10.20;99.90
15203;DHT22;7702;51.046;5.184;2023-05-15T04:05:18;10.20;99.90
15203;DHT22;7702;51.046;5.184;2023-05-15T04:07:44;10.20;99.90
15203;DHT22;7702;51.046;5.184;2023-05-15T04:10:10;10.20;99.90
15203;DHT22;7702;51.046;5.184;2023-05-15T04:12:35;10.20;99.90
15203;DHT22;7702;51.046;5.184;2023-05-15T04:15:20;10.20;99.90
15203;DHT22;7702;51.046;5.184;2023-05-15T04:17:49;10.10;99.90
15203;DHT22;7702;51.046;5.184;2023-05-15T04:20:16;10.20;99.90
15203;DHT22;7702;51.046;5.184;2023-05-15T04:22:43;10.30;99.90
15203;DHT22;7702;51.046;5.184;2023-05-15T04:25:10;10.30;99.90
15203;DHT22;7702;51.046;5.184;2023-05-15T04:27:37;10.30;99.90
15203;DHT22;7702;51.046;5.184;2023-05-15T04:30:03;10.40;99.90
15203;DHT22;7702;51.046;5.184;2023-05-15T04:32:30;10.50;99.90
15203;DHT22;7702;51.046;5.184;2023-05-15T04:35:01;10.60;99.90
15203;DHT22;7702;51.046;5.184;2023-05-15T04:37:28;10.60;99.90
15203;DHT22;7702;51.046;5.184;2023-05-15T04:39:54;10.60;99.90
15203;DHT22;7702;51.046;5.184;2023-05-15T04:42:19;10.60;99.90
15203;DHT22;7702;51.046;5.184;2023-05-15T04:44:45;10.60;99.90
15203;DHT22;7702;51.046;5.184;2023-05-15T04:47:11;10.50;99.90
15203;DHT22;7702;51.046;5.184;2023-05-15T04:49:38;10.50;99.90
15203;DHT22;7702;51.046;5.184;2023-05-15T04:52:04;10.50;99.90
15203;DHT22;7702;51.046;5.184;2023-05-15T04:54:30;10.30;99.90
15203;DHT22;7702;51.046;5.184;2023-05-15T04:56:55;10.40;99.90
15203;DHT22;7702;51.046;5.184;2023-05-15T04:59:22;10.30;99.90
15203;DHT22;7702;51.046;5.184;2023-05-15T05:01:52;10.40;99.90
15203;DHT22;7702;51.046;5.184;2023-05-15T05:04:17;10.40;99.90
15203;DHT22;7702;51.046;5.184;2023-05-15T05:06:47;10.40;99.90
15203;DHT22;7702;51.046;5.184;2023-05-15T05:09:13;10.40;99.90
15203;DHT22;7702;51.046;5.184;2023-05-15T05:11:39;10.30;99.90
15203;DHT22;7702;51.046;5.184;2023-05-15T05:14:11;10.30;99.90
15203;DHT22;7702;51.046;5.184;2023-05-15T05:16:37;10.30;99.90
15203;DHT22;7702;51.046;5.184;2023-05-15T05:19:03;10.30;99.90
15203;DHT22;7702;51.046;5.184;2023-05-15T05:21:30;10.30;99.90
15203;DHT22;7702;51.046;5.184;2023-05-15T05:23:56;10.30;99.90
15203;DHT22;7702;51.046;5.184;2023-05-15T05:26:22;10.30;99.90
15203;DHT22;7702;51.046;5.184;2023-05-15T05:28:48;10.20;99.90
15203;DHT22;7702;51.046;5.184;2023-05-15T05:31:13;10.10;99.90
15203;DHT22;7702;51.046;5.184;2023-05-15T05:33:39;10.10;99.90
15203;DHT22;7702;51.046;5.184;2023-05-15T05:36:05;10.10;99.90
15203;DHT22;7702;51.046;5.184;2023-05-15T05:38:32;10.20;99.90
15203;DHT22;7702;51.046;5.184;2023-05-15T05:40:58;10.40;99.90
15203;DHT22;7702;51.046;5.184;2023-05-15T05:43:25;10.40;99.90
15203;DHT22;7702;51.046;5.184;2023-05-15T05:45:52;10.50;99.90
15203;DHT22;7702;51.046;5.184;2023-05-15T05:48:18;10.30;99.90
15203;DHT22;7702;51.046;5.184;2023-05-15T05:50:44;10.50;99.90
15203;DHT22;7702;51.046;5.184;2023-05-15T05:53:10;10.50;99.90
15203;DHT22;7702;51.046;5.184;2023-05-15T05:55:35;10.50;99.90
15203;DHT22;7702;51.046;5.184;2023-05-15T05:58:02;10.60;99.90
15203;DHT22;7702;51.046;5.184;2023-05-15T06:00:27;10.60;99.90
15203;DHT22;7702;51.046;5.184;2023-05-15T06:02:56;10.70;99.90
15203;DHT22;7702;51.046;5.184;2023-05-15T06:05:23;10.70;99.90
15203;DHT22;7702;51.046;5.184;2023-05-15T06:07:50;10.80;99.90
15203;DHT22;7702;51.046;5.184;2023-05-15T06:10:15;11.00;99.90
15203;DHT22;7702;51.046;5.184;2023-05-15T06:12:41;11.10;99.90
15203;DHT22;7702;51.046;5.184;2023-05-15T06:15:07;11.20;99.90
15203;DHT22;7702;51.046;5.184;2023-05-15T06:17:33;11.40;99.90
15203;DHT22;7702;51.046;5.184;2023-05-15T06:19:58;11.30;99.90
15203;DHT22;7702;51.046;5.184;2023-05-15T06:22:24;11.40;99.90
15203;DHT22;7702;51.046;5.184;2023-05-15T06:24:50;11.40;99.90
15203;DHT22;7702;51.046;5.184;2023-05-15T06:27:16;11.40;99.90
15203;DHT22;7702;51.046;5.184;2023-05-15T06:29:42;11.60;99.90
15203;DHT22;7702;51.046;5.184;2023-05-15T06:32:07;11.60;99.90
15203;DHT22;7702;51.046;5.184;2023-05-15T06:34:33;11.70;99.90
15203;DHT22;7702;51.046;5.184;2023-05-15T06:37:00;11.80;99.90
15203;DHT22;7702;51.046;5.184;2023-05-15T06:39:26;11.90;99.90
15203;DHT22;7702;51.046;5.184;2023-05-15T06:41:52;12.00;99.90
15203;DHT22;7702;51.046;5.184;2023-05-15T06:44:22;12.20;99.90
15203;DHT22;7702;51.046;5.184;2023-05-15T06:46:48;12.30;99.90
15203;DHT22;7702;51.046;5.184;2023-05-15T06:49:13;12.30;99.90
15203;DHT22;7702;51.046;5.184;2023-05-15T06:51:39;12.00;99.90
15203;DHT22;7702;51.046;5.184;2023-05-15T06:54:06;11.80;99.90
15203;DHT22;7702;51.046;5.184;2023-05-15T06:56:32;11.70;99.90
15203;DHT22;7702;51.046;5.184;2023-05-15T06:58:58;11.40;99.90
15203;DHT22;7702;51.046;5.184;2023-05-15T07:01:23;11.70;99.90
15203;DHT22;7702;51.046;5.184;2023-05-15T07:03:49;12.10;99.90
15203;DHT22;7702;51.046;5.184;2023-05-15T07:06:15;12.40;99.90
15203;DHT22;7702;51.046;5.184;2023-05-15T07:08:40;12.50;99.90
15203;DHT22;7702;51.046;5.184;2023-05-15T07:11:06;12.50;99.90
15203;DHT22;7702;51.046;5.184;2023-05-15T07:13:32;12.50;99.90
15203;DHT22;7702;51.046;5.184;2023-05-15T07:15:57;12.80;99.90
15203;DHT22;7702;51.046;5.184;2023-05-15T07:18:23;12.60;99.90
15203;DHT22;7702;51.046;5.184;2023-05-15T07:20:49;12.80;99.90
15203;DHT22;7702;51.046;5.184;2023-05-15T07:23:15;12.70;99.90
15203;DHT22;7702;51.046;5.184;2023-05-15T07:25:40;12.80;99.90
15203;DHT22;7702;51.046;5.184;2023-05-15T07:28:06;13.20;99.90
15203;DHT22;7702;51.046;5.184;2023-05-15T07:30:32;13.00;99.90
15203;DHT22;7702;51.046;5.184;2023-05-15T07:32:57;12.70;99.90
15203;DHT22;7702;51.046;5.184;2023-05-15T07:35:24;12.70;99.90
15203;DHT22;7702;51.046;5.184;2023-05-15T07:37:50;12.80;99.90
15203;DHT22;7702;51.046;5.184;2023-05-15T07:40:16;12.60;99.90
15203;DHT22;7702;51.046;5.184;2023-05-15T07:42:44;12.80;99.90
15203;DHT22;7702;51.046;5.184;2023-05-15T07:45:10;13.10;99.90
15203;DHT22;7702;51.046;5.184;2023-05-15T07:47:37;13.60;99.90
15203;DHT22;7702;51.046;5.184;2023-05-15T07:50:03;14.00;99.90
15203;DHT22;7702;51.046;5.184;2023-05-15T07:52:28;14.60;99.90
15203;DHT22;7702;51.046;5.184;2023-05-15T07:54:54;15.00;99.90
15203;DHT22;7702;51.046;5.184;2023-05-15T07:57:20;14.90;99.90
15203;DHT22;7702;51.046;5.184;2023-05-15T07:59:45;14.50;99.90
15203;DHT22;7702;51.046;5.184;2023-05-15T08:02:11;13.80;99.90
15203;DHT22;7702;51.046;5.184;2023-05-15T08:04:37;14.20;99.90
15203;DHT22;7702;51.046;5.184;2023-05-15T08:07:02;14.40;99.90
15203;DHT22;7702;51.046;5.184;2023-05-15T08:09:28;14.60;99.90
15203;DHT22;7702;51.046;5.184;2023-05-15T08:11:55;14.70;99.90
15203;DHT22;7702;51.046;5.184;2023-05-15T08:14:21;14.60;99.90
15203;DHT22;7702;51.046;5.184;2023-05-15T08:16:48;14.40;99.90
15203;DHT22;7702;51.046;5.184;2023-05-15T08:19:15;14.80;99.90
15203;DHT22;7702;51.046;5.184;2023-05-15T08:21:41;15.40;99.90
15203;DHT22;7702;51.046;5.184;2023-05-15T08:24:07;15.80;99.90
15203;DHT22;7702;51.046;5.184;2023-05-15T08:26:33;15.70;99.90
15203;DHT22;7702;51.046;5.184;2023-05-15T08:28:58;14.80;99.90
15203;DHT22;7702;51.046;5.184;2023-05-15T08:31:24;14.90;99.90
15203;DHT22;7702;51.046;5.184;2023-05-15T08:33:50;14.90;99.90
15203;DHT22;7702;51.046;5.184;2023-05-15T08:36:15;15.30;99.90
15203;DHT22;7702;51.046;5.184;2023-05-15T08:38:42;15.80;99.90
15203;DHT22;7702;51.046;5.184;2023-05-15T08:41:15;16.10;99.90
15203;DHT22;7702;51.046;5.184;2023-05-15T08:43:43;16.40;99.90
15203;DHT22;7702;51.046;5.184;2023-05-15T08:46:09;16.30;99.90
15203;DHT22;7702;51.046;5.184;2023-05-15T08:48:36;16.10;99.90
15203;DHT22;7702;51.046;5.184;2023-05-15T08:51:08;15.80;99.90
15203;DHT22;7702;51.046;5.184;2023-05-15T08:53:35;15.90;99.90
15203;DHT22;7702;51.046;5.184;2023-05-15T08:56:01;16.00;99.90
15203;DHT22;7702;51.046;5.184;2023-05-15T08:58:28;16.20;99.90
15203;DHT22;7702;51.046;5.184;2023-05-15T09:00:55;16.40;99.90
15203;DHT22;7702;51.046;5.184;2023-05-15T09:03:21;16.30;99.90
15203;DHT22;7702;51.046;5.184;2023-05-15T09:05:51;16.30;99.90
15203;DHT22;7702;51.046;5.184;2023-05-15T09:08:21;16.20;99.90
15203;DHT22;7702;51.046;5.184;2023-05-15T09:10:49;16.30;99.90
15203;DHT22;7702;51.046;5.184;2023-05-15T09:13:16;16.80;99.90
15203;DHT22;7702;51.046;5.184;2023-05-15T09:15:44;17.30;99.90
15203;DHT22;7702;51.046;5.184;2023-05-15T09:18:13;16.90;99.90
15203;DHT22;7702;51.046;5.184;2023-05-15T09:20:39;17.30;99.90
15203;DHT22;7702;51.046;5.184;2023-05-15T09:23:21;18.00;99.90
15203;DHT22;7702;51.046;5.184;2023-05-15T09:25:47;18.30;99.90
15203;DHT22;7702;51.046;5.184;2023-05-15T09:28:31;18.50;99.90
15203;DHT22;7702;51.046;5.184;2023-05-15T09:31:03;18.90;99.90
15203;DHT22;7702;51.046;5.184;2023-05-15T09:33:37;19.50;99.90
15203;DHT22;7702;51.046;5.184;2023-05-15T09:36:04;19.50;99.90
15203;DHT22;7702;51.046;5.184;2023-05-15T09:38:43;19.70;99.90
15203;DHT22;7702;51.046;5.184;2023-05-15T09:41:14;19.70;99.90
15203;DHT22;7702;51.046;5.184;2023-05-15T09:43:48;20.30;99.90
15203;DHT22;7702;51.046;5.184;2023-05-15T09:46:14;20.10;99.90
15203;DHT22;7702;51.046;5.184;2023-05-15T09:48:41;19.80;99.90
15203;DHT22;7702;51.046;5.184;2023-05-15T09:51:17;20.00;99.90
15203;DHT22;7702;51.046;5.184;2023-05-15T09:53:53;19.10;99.90
15203;DHT22;7702;51.046;5.184;2023-05-15T09:56:20;19.00;99.90
15203;DHT22;7702;51.046;5.184;2023-05-15T09:58:56;19.70;99.90
15203;DHT22;7702;51.046;5.184;2023-05-15T10:01:23;20.20;99.90
15203;DHT22;7702;51.046;5.184;2023-05-15T10:03:57;20.40;99.90
15203;DHT22;7702;51.046;5.184;2023-05-15T10:06:23;20.60;99.90
15203;DHT22;7702;51.046;5.184;2023-05-15T10:08:53;20.60;99.90
15203;DHT22;7702;51.046;5.184;2023-05-15T10:11:19;20.40;99.90
15203;DHT22;7702;51.046;5.184;2023-05-15T10:13:48;20.00;99.90
15203;DHT22;7702;51.046;5.184;2023-05-15T10:16:14;19.90;99.90
15203;DHT22;7702;51.046;5.184;2023-05-15T10:18:43;19.70;99.90
15203;DHT22;7702;51.046;5.184;2023-05-15T10:21:09;19.40;99.90
15203;DHT22;7702;51.046;5.184;2023-05-15T10:23:36;19.10;99.90
15203;DHT22;7702;51.046;5.184;2023-05-15T10:26:38;18.80;99.90
15203;DHT22;7702;51.046;5.184;2023-05-15T10:29:12;18.50;99.90
15203;DHT22;7702;51.046;5.184;2023-05-15T10:31:41;19.10;99.90
15203;DHT22;7702;51.046;5.184;2023-05-15T10:34:08;18.90;99.90
15203;DHT22;7702;51.046;5.184;2023-05-15T10:36:36;18.50;99.90
15203;DHT22;7702;51.046;5.184;2023-05-15T10:39:04;18.90;99.90
15203;DHT22;7702;51.046;5.184;2023-05-15T10:41:32;19.00;99.90
15203;DHT22;7702;51.046;5.184;2023-05-15T10:44:00;19.00;99.90
15203;DHT22;7702;51.046;5.184;2023-05-15T10:46:30;18.50;99.90
15203;DHT22;7702;51.046;5.184;2023-05-15T10:48:58;18.00;99.90
15203;DHT22;7702;51.046;5.184;2023-05-15T10:51:27;18.00;99.90
15203;DHT22;7702;51.046;5.184;2023-05-15T10:53:54;18.40;99.90
15203;DHT22;7702;51.046;5.184;2023-05-15T10:56:20;18.80;99.90
15203;DHT22;7702;51.046;5.184;2023-05-15T10:58:50;19.00;99.90
15203;DHT22;7702;51.046;5.184;2023-05-15T11:01:28;18.90;99.90
15203;DHT22;7702;51.046;5.184;2023-05-15T11:04:13;18.80;99.90
15203;DHT22;7702;51.046;5.184;2023-05-15T11:06:44;18.60;99.90
15203;DHT22;7702;51.046;5.184;2023-05-15T11:14:17;18.30;99.90
15203;DHT22;7702;51.046;5.184;2023-05-15T11:25:00;18.80;99.90
15203;DHT22;7702;51.046;5.184;2023-05-15T11:27:28;18.80;99.90
15203;DHT22;7702;51.046;5.184;2023-05-15T11:30:13;18.80;99.90
15203;DHT22;7702;51.046;5.184;2023-05-15T11:37:48;19.00;99.90
15203;DHT22;7702;51.046;5.184;2023-05-15T11:40:20;18.60;99.90
15203;DHT22;7702;51.046;5.184;2023-05-15T11:45:33;18.30;99.90
15203;DHT22;7702;51.046;5.184;2023-05-15T11:48:00;18.00;99.90
15203;DHT22;7702;51.046;5.184;2023-05-15T11:50:29;17.90;99.90
15203;DHT22;7702;51.046;5.184;2023-05-15T11:52:56;17.70;99.90
15203;DHT22;7702;51.046;5.184;2023-05-15T11:55:24;17.60;99.90
15203;DHT22;7702;51.046;5.184;2023-05-15T11:57:50;17.30;99.90
15203;DHT22;7702;51.046;5.184;2023-05-15T12:00:15;17.30;99.90
15203;DHT22;7702;51.046;5.184;2023-05-15T12:02:41;17.20;99.90
15203;DHT22;7702;51.046;5.184;2023-05-15T12:05:07;17.10;99.90
15203;DHT22;7702;51.046;5.184;2023-05-15T12:07:40;16.70;99.90
15203;DHT22;7702;51.046;5.184;2023-05-15T12:10:06;16.40;99.90
15203;DHT22;7702;51.046;5.184;2023-05-15T12:12:35;16.30;99.90
15203;DHT22;7702;51.046;5.184;2023-05-15T12:15:01;16.10;99.90
15203;DHT22;7702;51.046;5.184;2023-05-15T12:17:27;16.10;99.90
15203;DHT22;7702;51.046;5.184;2023-05-15T12:19:54;16.00;99.90
15203;DHT22;7702;51.046;5.184;2023-05-15T12:22:21;15.90;99.90
15203;DHT22;7702;51.046;5.184;2023-05-15T12:24:47;15.80;99.90
15203;DHT22;7702;51.046;5.184;2023-05-15T12:27:14;15.40;99.90
15203;DHT22;7702;51.046;5.184;2023-05-15T12:29:40;15.30;99.90
15203;DHT22;7702;51.046;5.184;2023-05-15T12:32:07;15.10;99.90
15203;DHT22;7702;51.046;5.184;2023-05-15T12:34:33;15.10;99.90
15203;DHT22;7702;51.046;5.184;2023-05-15T12:36:59;14.90;99.90
15203;DHT22;7702;51.046;5.184;2023-05-15T12:39:25;14.90;99.90
15203;DHT22;7702;51.046;5.184;2023-05-15T12:41:51;14.90;99.90
15203;DHT22;7702;51.046;5.184;2023-05-15T12:44:20;15.00;99.90
15203;DHT22;7702;51.046;5.184;2023-05-15T12:46:46;14.90;99.90
15203;DHT22;7702;51.046;5.184;2023-05-15T12:49:12;15.00;99.90
15203;DHT22;7702;51.046;5.184;2023-05-15T12:51:42;14.80;99.90
15203;DHT22;7702;51.046;5.184;2023-05-15T12:54:16;14.70;99.90
15203;DHT22;7702;51.046;5.184;2023-05-15T12:56:42;14.60;99.90
15203;DHT22;7702;51.046;5.184;2023-05-15T12:59:10;14.60;99.90
15203;DHT22;7702;51.046;5.184;2023-05-15T13:01:36;14.70;99.90
15203;DHT22;7702;51.046;5.184;2023-05-15T13:04:02;14.90;99.90
15203;DHT22;7702;51.046;5.184;2023-05-15T13:06:28;15.00;99.90
15203;DHT22;7702;51.046;5.184;2023-05-15T13:08:54;14.90;99.90
15203;DHT22;7702;51.046;5.184;2023-05-15T13:11:20;14.90;99.90
15203;DHT22;7702;51.046;5.184;2023-05-15T13:13:48;15.00;99.90
15203;DHT22;7702;51.046;5.184;2023-05-15T13:16:26;14.90;99.90
15203;DHT22;7702;51.046;5.184;2023-05-15T13:18:55;14.90;99.90
15203;DHT22;7702;51.046;5.184;2023-05-15T13:21:22;14.80;99.90
15203;DHT22;7702;51.046;5.184;2023-05-15T13:23:49;14.80;99.90
15203;DHT22;7702;51.046;5.184;2023-05-15T13:26:15;14.80;99.90
15203;DHT22;7702;51.046;5.184;2023-05-15T13:28:41;15.00;99.90
15203;DHT22;7702;51.046;5.184;2023-05-15T13:31:06;15.00;99.90
15203;DHT22;7702;51.046;5.184;2023-05-15T13:33:32;14.90;99.90
15203;DHT22;7702;51.046;5.184;2023-05-15T13:36:00;14.90;99.90
15203;DHT22;7702;51.046;5.184;2023-05-15T13:38:26;14.70;99.90
15203;DHT22;7702;51.046;5.184;2023-05-15T13:40:52;14.50;99.90
15203;DHT22;7702;51.046;5.184;2023-05-15T13:43:17;14.10;99.90
15203;DHT22;7702;51.046;5.184;2023-05-15T13:45:43;14.00;99.90
15203;DHT22;7702;51.046;5.184;2023-05-15T13:48:09;13.90;99.90
15203;DHT22;7702;51.046;5.184;2023-05-15T13:50:34;14.00;99.90
15203;DHT22;7702;51.046;5.184;2023-05-15T13:53:00;14.00;99.90
15203;DHT22;7702;51.046;5.184;2023-05-15T13:55:26;13.90;99.90
15203;DHT22;7702;51.046;5.184;2023-05-15T13:57:52;13.90;99.90
15203;DHT22;7702;51.046;5.184;2023-05-15T14:00:18;14.00;99.90
15203;DHT22;7702;51.046;5.184;2023-05-15T14:02:44;14.10;99.90
15203;DHT22;7702;51.046;5.184;2023-05-15T14:05:12;14.10;99.90
15203;DHT22;7702;51.046;5.184;2023-05-15T14:07:39;14.10;99.90
15203;DHT22;7702;51.046;5.184;2023-05-15T14:10:05;14.00;99.90
15203;DHT22;7702;51.046;5.184;2023-05-15T14:12:32;13.90;99.90
15203;DHT22;7702;51.046;5.184;2023-05-15T14:14:58;13.90;99.90
15203;DHT22;7702;51.046;5.184;2023-05-15T14:17:25;13.90;99.90
15203;DHT22;7702;51.046;5.184;2023-05-15T14:19:52;14.00;99.90
15203;DHT22;7702;51.046;5.184;2023-05-15T14:22:17;14.10;99.90
15203;DHT22;7702;51.046;5.184;2023-05-15T14:24:43;14.00;99.90
15203;DHT22;7702;51.046;5.184;2023-05-15T14:27:09;14.00;99.90
15203;DHT22;7702;51.046;5.184;2023-05-15T14:29:35;13.80;99.90
15203;DHT22;7702;51.046;5.184;2023-05-15T14:32:01;13.70;99.90
15203;DHT22;7702;51.046;5.184;2023-05-15T14:34:28;13.60;99.90
15203;DHT22;7702;51.046;5.184;2023-05-15T14:36:54;13.60;99.90
15203;DHT22;7702;51.046;5.184;2023-05-15T14:39:20;13.60;99.90
15203;DHT22;7702;51.046;5.184;2023-05-15T14:41:46;13.40;99.90
15203;DHT22;7702;51.046;5.184;2023-05-15T14:44:12;13.40;99.90
15203;DHT22;7702;51.046;5.184;2023-05-15T14:46:39;13.50;99.90
15203;DHT22;7702;51.046;5.184;2023-05-15T14:49:05;13.40;99.90
15203;DHT22;7702;51.046;5.184;2023-05-15T14:51:31;13.30;99.90
15203;DHT22;7702;51.046;5.184;2023-05-15T14:53:57;13.10;99.90
15203;DHT22;7702;51.046;5.184;2023-05-15T14:56:23;12.80;99.90
15203;DHT22;7702;51.046;5.184;2023-05-15T14:58:50;12.60;99.90
15203;DHT22;7702;51.046;5.184;2023-05-15T15:01:18;12.50;99.90
15203;DHT22;7702;51.046;5.184;2023-05-15T15:03:43;12.40;99.90
15203;DHT22;7702;51.046;5.184;2023-05-15T15:06:10;12.30;99.90
15203;DHT22;7702;51.046;5.184;2023-05-15T15:08:36;12.30;99.90
15203;DHT22;7702;51.046;5.184;2023-05-15T15:11:02;12.20;99.90
15203;DHT22;7702;51.046;5.184;2023-05-15T15:13:27;12.20;99.90
15203;DHT22;7702;51.046;5.184;2023-05-15T15:15:55;12.30;99.90
15203;DHT22;7702;51.046;5.184;2023-05-15T15:18:21;12.30;99.90
15203;DHT22;7702;51.046;5.184;2023-05-15T15:20:47;12.20;99.90
15203;DHT22;7702;51.046;5.184;2023-05-15T15:23:12;12.20;99.90
15203;DHT22;7702;51.046;5.184;2023-05-15T15:25:38;12.20;99.90
15203;DHT22;7702;51.046;5.184;2023-05-15T15:28:04;12.10;99.90
15203;DHT22;7702;51.046;5.184;2023-05-15T15:30:30;12.10;99.90
15203;DHT22;7702;51.046;5.184;2023-05-15T15:32:56;12.10;99.90
15203;DHT22;7702;51.046;5.184;2023-05-15T15:35:22;12.00;99.90
15203;DHT22;7702;51.046;5.184;2023-05-15T15:37:48;11.80;99.90
15203;DHT22;7702;51.046;5.184;2023-05-15T15:40:13;11.70;99.90
15203;DHT22;7702;51.046;5.184;2023-05-15T15:42:39;11.70;99.90
15203;DHT22;7702;51.046;5.184;2023-05-15T15:45:05;11.70;99.90
15203;DHT22;7702;51.046;5.184;2023-05-15T15:47:31;11.60;99.90
15203;DHT22;7702;51.046;5.184;2023-05-15T15:49:58;11.60;99.90
15203;DHT22;7702;51.046;5.184;2023-05-15T15:52:24;11.60;99.90
15203;DHT22;7702;51.046;5.184;2023-05-15T15:54:50;11.60;99.90
15203;DHT22;7702;51.046;5.184;2023-05-15T15:57:16;11.60;99.90
15203;DHT22;7702;51.046;5.184;2023-05-15T15:59:42;11.60;99.90
15203;DHT22;7702;51.046;5.184;2023-05-15T16:02:09;11.60;99.90
15203;DHT22;7702;51.046;5.184;2023-05-15T16:04:35;11.60;99.90
15203;DHT22;7702;51.046;5.184;2023-05-15T16:07:02;11.70;99.90
15203;DHT22;7702;51.046;5.184;2023-05-15T16:09:28;11.80;99.90
15203;DHT22;7702;51.046;5.184;2023-05-15T16:11:54;11.70;99.90
15203;DHT22;7702;51.046;5.184;2023-05-15T16:14:20;11.60;99.90
15203;DHT22;7702;51.046;5.184;2023-05-15T16:16:46;11.60;99.90
15203;DHT22;7702;51.046;5.184;2023-05-15T16:19:13;11.60;99.90